Terminal Aerodrome Forecast
Issued by NWS

Home | Current Version | Previous Version | Text Only | Print | Product List | Glossary Off
Versions: 1 2 3 4 5 6 7 8 9 10 11 12 13 14 15 16 17 18 19 20 21 22 23 24 25 26

795
FTUS42 KMHX 221401 AAB
TAFPGV
TAF AMD
KPGV 221401Z 2214/2312 22004KT P6SM SCT015 BKN060
      TEMPO 2214/2215 BKN020
     FM221600 23008G15KT P6SM BKN040
     FM230000 20008KT P6SM SCT150
     FM230900 22007KT P6SM BKN040
      AMD LTD TO CLD VIS AND WIND=

USA.gov is the U.S. government's official web portal to all federal, state and local government web resources and services.